메인 페이지
METAR-TAF:

METAR-TAF

공항 :

오션사이드 / Camp Pendleton, 캘리포니아, 미국

위도: 33-18-17N, 경도: 117-21-14W, 고도: 23m

현재 날씨관측

예보는 1 시간 28분 전, 20:55시(UTC)에 발표되었습니다.
남서8kt, 순간 최대 풍속 16kt
온도 26°C
습도 61%
기압 1017 hPa
시정: 16.1km
맑음

METAR: KNFG 142055Z AUTO 22008G16KT 10SM CLR 26/18 A3002 RMK AO2 SLP164 T02560183 55009 $

시각: 15:23 (22:23 UTC)

예보

예보 대상 시간: 14일 21시부터 15일 21시까지 (UTC)
8kt
시정 10km 이상
고도 15000ft 상공 구름 조금
전환 중
15일 05시부터 15일 07시까지 (UTC)
서북서4kt
시정 10km 이상
고도 1000ft 상공 구름 많음
일시적
15일 09시부터 15일 15시까지 (UTC)
시정: 8000m
고도 800ft 상공 흐림
박무,

TAF: KNFG 1421/1521 28008KT 9999 FEW150 QNH2996INS BECMG 1505/1507 30004KT 9999 BKN010 QNH2997INS TEMPO 1509/1515 8000 BR OVC008 T26/1421Z T18/1509Z

4,000개 이상의 공항 관측 자료 및 예보 (METAR 및 TAF 보고).

지도상에서 검색 가능한 기상관측소가 노란 점과 빨간 점으로 표시되어 있습니다.

기상관측소 명을 보려면 표시 위로 마우스를 이동하세요.

날씨 관측과 예보를 보려면 클릭하세요.

지도 변경 : 확대하려면 엑스 표시가 있는 녹색 버튼, 축소하려면 빼기 표시가 있는 녹색 버튼, 다음 페이지의 지도를 보려면 녹색 화살표를 클릭하세요.


METAR-TAF: